Time;durP1;ratioP1;P1;durP2;ratioP2;P2;SDS_P1;SDS_P2;PMS_P1;PMS_P2;Temp;Humidity;BMP_temperature;BMP_pressure;BME280_temperature;BME280_humidity;BME280_pressure;Samples;Min_cycle;Max_cycle;Signal;HPM_P1;HPM_P2
2021/10/28 00:14:25;;;;;;;13.47;9.47;;;11.00;99.90;;;;;;5074388;28;20945;-72
2021/10/28 00:16:54;;;;;;;13.03;8.93;;;11.00;99.90;;;;;;5073818;28;20412;-71
2021/10/28 00:19:19;;;;;;;10.70;8.30;;;11.00;99.90;;;;;;5074221;28;20427;-74
2021/10/28 00:21:45;;;;;;;11.70;9.00;;;11.00;99.90;;;;;;5074704;28;20494;-74
2021/10/28 00:24:13;;;;;;;10.77;8.70;;;11.00;99.90;;;;;;5076147;28;20174;-73
2021/10/28 00:26:41;;;;;;;14.77;9.90;;;10.90;99.90;;;;;;5076166;28;20521;-74
2021/10/28 00:29:09;;;;;;;13.87;8.83;;;10.90;99.90;;;;;;5075892;28;20491;-73
2021/10/28 00:31:37;;;;;;;12.50;9.17;;;10.90;99.90;;;;;;5075922;28;20395;-74
2021/10/28 00:34:04;;;;;;;12.53;9.80;;;10.80;99.90;;;;;;5075318;28;20416;-72
2021/10/28 00:36:30;;;;;;;12.63;9.37;;;10.80;99.90;;;;;;5075518;28;20893;-74
2021/10/28 00:38:56;;;;;;;13.07;8.03;;;10.80;99.90;;;;;;5076485;28;20411;-73
2021/10/28 00:41:23;;;;;;;16.40;10.60;;;10.80;99.90;;;;;;5075385;28;20473;-73
2021/10/28 00:43:57;;;;;;;11.03;7.70;;;10.80;99.90;;;;;;5073056;28;20177;-73
2021/10/28 00:46:25;;;;;;;11.70;9.37;;;10.80;99.90;;;;;;5072887;28;20583;-73
2021/10/28 00:48:51;;;;;;;12.30;8.83;;;10.80;99.90;;;;;;5073170;28;20962;-73
2021/10/28 00:51:25;;;;;;;12.43;9.00;;;10.70;99.90;;;;;;5073478;28;20399;-73
2021/10/28 00:53:51;;;;;;;14.63;9.90;;;10.60;99.90;;;;;;5046933;28;20424;-73
2021/10/28 00:56:19;;;;;;;12.80;9.30;;;10.70;99.90;;;;;;5036728;28;20917;-73
2021/10/28 00:58:45;;;;;;;14.68;10.30;;;10.60;99.90;;;;;;5064533;28;20410;-73
2021/10/28 01:01:10;;;;;;;12.53;9.23;;;10.60;99.90;;;;;;5064593;28;20590;-73
2021/10/28 01:03:38;;;;;;;11.87;8.70;;;10.60;99.90;;;;;;5072885;28;20204;-73
2021/10/28 01:06:06;;;;;;;13.10;9.80;;;10.60;99.90;;;;;;5054888;28;20177;-73
2021/10/28 01:08:33;;;;;;;17.15;11.95;;;10.60;99.90;;;;;;5072031;28;20938;-73
2021/10/28 01:10:59;;;;;;;15.20;10.87;;;10.50;99.90;;;;;;5073883;28;20217;-73
2021/10/28 01:13:25;;;;;;;16.00;9.80;;;10.50;99.90;;;;;;5072881;28;20942;-73
2021/10/28 01:15:55;;;;;;;12.13;10.43;;;10.50;99.90;;;;;;5072403;28;20676;-74
2021/10/28 01:18:21;;;;;;;13.13;9.40;;;10.50;99.90;;;;;;5073024;28;20177;-73
2021/10/28 01:20:50;;;;;;;14.70;10.20;;;10.50;99.90;;;;;;5072591;28;20442;-73
2021/10/28 01:23:16;;;;;;;14.17;10.47;;;10.50;99.90;;;;;;5072716;28;20267;-73
2021/10/28 01:25:53;;;;;;;13.53;9.80;;;10.50;99.90;;;;;;5073448;28;20412;-73
2021/10/28 01:28:20;;;;;;;14.40;10.73;;;10.40;99.90;;;;;;5073761;28;20459;-73
2021/10/28 01:30:50;;;;;;;14.80;10.73;;;10.50;99.90;;;;;;5073777;28;20451;-73
2021/10/28 01:33:17;;;;;;;18.30;11.47;;;10.40;99.90;;;;;;5073846;28;20414;-73
2021/10/28 01:35:43;;;;;;;17.10;10.80;;;10.50;99.90;;;;;;5072397;28;20412;-73
2021/10/28 01:38:11;;;;;;;17.00;11.70;;;10.50;99.90;;;;;;5073069;28;20493;-73
2021/10/28 01:40:37;;;;;;;14.60;11.10;;;10.50;99.90;;;;;;5075470;28;20435;-75
2021/10/28 01:43:03;;;;;;;14.90;10.30;;;10.50;99.90;;;;;;5075021;28;20776;-72
2021/10/28 01:45:29;;;;;;;15.50;10.63;;;10.50;99.90;;;;;;5071935;28;20403;-72
2021/10/28 01:47:55;;;;;;;19.53;12.13;;;10.50;99.90;;;;;;5054329;28;20466;-72
2021/10/28 01:50:21;;;;;;;18.90;11.30;;;10.50;99.90;;;;;;5054533;28;20442;-72
2021/10/28 01:52:46;;;;;;;16.03;11.77;;;10.50;99.90;;;;;;5072586;28;20261;-72
2021/10/28 01:55:12;;;;;;;18.03;12.43;;;10.60;99.90;;;;;;5071747;28;20582;-72
2021/10/28 01:57:39;;;;;;;16.80;11.50;;;10.60;99.90;;;;;;5054177;28;20181;-73
2021/10/28 02:00:11;;;;;;;16.43;11.73;;;10.60;99.90;;;;;;5072415;28;20431;-72
2021/10/28 02:02:37;;;;;;;16.27;11.40;;;10.60;99.90;;;;;;5072310;28;20553;-72
2021/10/28 02:05:03;;;;;;;17.57;11.40;;;10.50;99.90;;;;;;5072010;28;20460;-72
2021/10/28 02:07:30;;;;;;;15.43;11.00;;;10.50;99.90;;;;;;5072114;28;20641;-72
2021/10/28 02:09:55;;;;;;;14.20;11.00;;;10.50;99.90;;;;;;5072281;28;20504;-72
2021/10/28 02:12:21;;;;;;;16.50;12.60;;;10.50;99.90;;;;;;5072225;28;20452;-72
2021/10/28 02:14:46;;;;;;;16.40;11.80;;;10.50;99.90;;;;;;5053352;28;20238;-72
2021/10/28 02:17:12;;;;;;;16.37;12.73;;;10.50;99.90;;;;;;5071986;28;20177;-72
2021/10/28 02:19:37;;;;;;;18.67;13.17;;;10.50;99.90;;;;;;5071698;28;20189;-72
2021/10/28 02:22:03;;;;;;;18.30;12.33;;;10.50;99.90;;;;;;5071606;28;20536;-72
2021/10/28 02:24:30;;;;;;;17.40;12.80;;;10.50;99.90;;;;;;5053902;28;20181;-72
2021/10/28 02:26:56;;;;;;;16.60;11.50;;;10.40;99.90;;;;;;5053586;28;20184;-72
2021/10/28 02:29:21;;;;;;;15.80;12.20;;;10.40;99.90;;;;;;5071325;28;20975;-73
2021/10/28 02:31:47;;;;;;;17.23;11.83;;;10.40;99.90;;;;;;5071444;28;20207;-72
2021/10/28 02:34:13;;;;;;;15.10;10.57;;;10.30;99.90;;;;;;5071885;28;20190;-73
2021/10/28 02:36:39;;;;;;;16.53;11.70;;;10.30;99.90;;;;;;5071238;28;20193;-73
2021/10/28 02:39:04;;;;;;;18.17;12.70;;;10.30;99.90;;;;;;5071519;28;20459;-73
2021/10/28 02:41:30;;;;;;;15.80;12.00;;;10.20;99.90;;;;;;5071549;28;20230;-73
2021/10/28 02:43:56;;;;;;;18.57;12.60;;;10.20;99.90;;;;;;5071503;28;20174;-72
2021/10/28 02:46:22;;;;;;;19.60;12.57;;;10.20;99.90;;;;;;5071198;28;20255;-72
2021/10/28 02:48:48;;;;;;;18.87;12.37;;;10.20;99.90;;;;;;5053515;28;20491;-72
2021/10/28 02:51:13;;;;;;;16.03;11.23;;;10.20;99.90;;;;;;5071286;28;20176;-73
2021/10/28 02:53:39;;;;;;;15.10;11.20;;;10.20;99.90;;;;;;5064852;28;20178;-73
2021/10/28 02:56:05;;;;;;;19.40;13.43;;;10.10;99.90;;;;;;5056772;28;20673;-72
2021/10/28 02:58:30;;;;;;;15.77;12.20;;;10.10;99.90;;;;;;5061612;28;20182;-72
2021/10/28 03:00:56;;;;;;;18.10;13.10;;;10.10;99.90;;;;;;5062573;28;20193;-72
2021/10/28 03:03:21;;;;;;;13.90;11.70;;;10.10;99.90;;;;;;5071636;28;20176;-72
2021/10/28 03:05:48;;;;;;;19.33;12.20;;;10.10;99.90;;;;;;5071266;28;20347;-72
2021/10/28 03:08:13;;;;;;;15.53;10.97;;;10.10;99.90;;;;;;5073584;28;20545;-72
2021/10/28 03:10:41;;;;;;;17.07;11.87;;;10.20;99.90;;;;;;5075251;28;20193;-72
2021/10/28 03:13:07;;;;;;;16.83;12.47;;;10.20;99.90;;;;;;5057175;28;20165;-72
2021/10/28 03:15:36;;;;;;;17.60;12.40;;;10.20;99.90;;;;;;5076480;28;20899;-71
2021/10/28 03:18:18;;;;;;;14.40;10.17;;;10.20;99.90;;;;;;5057562;28;20211;-72
2021/10/28 03:26:11;;;;;;;16.40;10.73;;;10.10;99.90;;;;;;5073343;28;20445;-72
2021/10/28 03:28:37;;;;;;;19.10;12.67;;;10.10;99.90;;;;;;5074907;28;20451;-74
2021/10/28 03:31:02;;;;;;;15.77;12.17;;;10.10;99.90;;;;;;5057056;28;20212;-72
2021/10/28 03:33:28;;;;;;;16.07;11.47;;;10.10;99.90;;;;;;5074686;22;20321;-73
2021/10/28 03:35:54;;;;;;;21.70;12.63;;;10.10;99.90;;;;;;5042262;28;20703;-72
2021/10/28 03:38:28;;;;;;;17.67;12.67;;;10.10;99.90;;;;;;5053455;28;20260;-73
2021/10/28 04:07:32;;;;;;;17.40;12.57;;;10.60;99.90;;;;;;5060328;28;20547;-73
2021/10/28 04:28:57;;;;;;;18.50;13.80;;;11.00;99.90;;;;;;5021846;28;20547;-72
2021/10/28 04:31:27;;;;;;;19.57;13.80;;;11.00;99.90;;;;;;4994685;28;20471;-72
2021/10/28 04:33:54;;;;;;;19.07;13.73;;;11.00;99.90;;;;;;5005005;28;20459;-72
2021/10/28 04:36:23;;;;;;;18.93;13.30;;;11.10;99.90;;;;;;5000386;28;21117;-71
2021/10/28 04:38:49;;;;;;;18.60;14.60;;;11.10;99.90;;;;;;5007257;28;20452;-73
2021/10/28 04:41:14;;;;;;;20.13;15.47;;;11.20;99.90;;;;;;4988704;28;20454;-72
2021/10/28 04:43:40;;;;;;;18.50;14.63;;;11.20;99.90;;;;;;5001909;28;20445;-73
2021/10/28 04:46:05;;;;;;;19.67;14.90;;;11.20;99.90;;;;;;4994337;28;20258;-73
2021/10/28 04:48:31;;;;;;;21.60;16.17;;;11.20;99.90;;;;;;4989295;28;20490;-73
2021/10/28 04:50:57;;;;;;;21.07;14.33;;;11.20;99.90;;;;;;5002765;28;20217;-73
2021/10/28 04:53:23;;;;;;;22.33;15.20;;;11.20;99.90;;;;;;5052597;28;20190;-73
2021/10/28 04:55:49;;;;;;;16.33;13.57;;;11.20;99.90;;;;;;5052291;28;20285;-73
2021/10/28 04:58:14;;;;;;;20.10;15.93;;;11.30;99.90;;;;;;5052304;28;21000;-73
2021/10/28 05:00:40;;;;;;;19.97;14.37;;;11.20;99.90;;;;;;5051361;28;20202;-73
2021/10/28 05:03:06;;;;;;;22.77;15.17;;;11.30;99.90;;;;;;5051673;28;20222;-73
2021/10/28 05:05:31;;;;;;;21.67;13.77;;;11.20;99.90;;;;;;5050618;28;20222;-72
2021/10/28 05:07:57;;;;;;;23.60;15.53;;;11.20;99.90;;;;;;5052348;28;20212;-73
2021/10/28 05:10:22;;;;;;;19.40;14.40;;;11.10;99.90;;;;;;5056119;28;20213;-73
2021/10/28 05:12:48;;;;;;;22.17;14.40;;;11.10;99.90;;;;;;5067413;28;20210;-73
2021/10/28 05:15:13;;;;;;;18.33;14.23;;;11.10;99.90;;;;;;5054976;28;20206;-72
2021/10/28 05:17:39;;;;;;;21.70;14.27;;;11.10;99.90;;;;;;5053472;28;20205;-72
2021/10/28 05:20:05;;;;;;;19.60;14.10;;;11.10;99.90;;;;;;5073249;28;20193;-73
2021/10/28 05:22:30;;;;;;;22.50;15.13;;;11.10;99.90;;;;;;5071021;28;20213;-73
2021/10/28 05:24:57;;;;;;;21.10;14.77;;;11.10;99.90;;;;;;5071736;28;20442;-73
2021/10/28 05:27:22;;;;;;;22.67;15.00;;;11.20;99.90;;;;;;5059025;28;20209;-73
2021/10/28 05:29:48;;;;;;;17.20;13.70;;;11.20;99.90;;;;;;5051479;28;20456;-73
2021/10/28 05:32:13;;;;;;;20.87;14.50;;;11.20;99.90;;;;;;5052024;28;20257;-74
2021/10/28 05:34:39;;;;;;;27.80;15.50;;;11.20;99.90;;;;;;5052060;28;20217;-74
2021/10/28 05:37:05;;;;;;;22.90;15.17;;;11.20;99.90;;;;;;5060776;28;20297;-71
2021/10/28 05:39:31;;;;;;;22.83;15.40;;;11.30;99.90;;;;;;5068663;28;20462;-79
2021/10/28 05:41:57;;;;;;;20.77;14.37;;;11.30;99.90;;;;;;5065907;28;20448;-72
2021/10/28 05:44:22;;;;;;;22.77;16.50;;;11.30;99.90;;;;;;5072864;28;20212;-72
2021/10/28 05:46:48;;;;;;;21.63;15.03;;;11.30;99.90;;;;;;5041301;28;20272;-72
2021/10/28 05:49:14;;;;;;;20.47;15.37;;;11.30;99.90;;;;;;5052871;28;20570;-74
2021/10/28 05:51:40;;;;;;;20.00;14.50;;;11.30;99.90;;;;;;5050725;28;20752;-74
2021/10/28 05:54:05;;;;;;;19.40;14.98;;;11.30;99.90;;;;;;5051418;28;20397;-73
2021/10/28 05:56:31;;;;;;;20.33;16.17;;;11.30;99.90;;;;;;5050392;28;20662;-73
2021/10/28 05:58:57;;;;;;;20.70;15.30;;;11.30;99.90;;;;;;5033033;28;20202;-75
2021/10/28 06:01:22;;;;;;;24.50;17.47;;;11.30;99.90;;;;;;5050820;28;20212;-73
2021/10/28 06:03:48;;;;;;;22.70;15.63;;;11.30;99.90;;;;;;5050567;28;20212;-73
2021/10/28 06:06:13;;;;;;;21.20;15.67;;;11.30;99.90;;;;;;5016570;28;20194;-73
2021/10/28 06:08:39;;;;;;;22.73;16.00;;;11.30;99.90;;;;;;5050102;28;20443;-73
2021/10/28 06:11:04;;;;;;;26.23;17.67;;;11.20;99.90;;;;;;5051068;28;20220;-74
2021/10/28 06:13:30;;;;;;;22.73;16.27;;;11.20;99.90;;;;;;5050514;28;20710;-74
2021/10/28 06:15:57;;;;;;;22.73;15.50;;;11.20;99.90;;;;;;5051524;28;20666;-72
2021/10/28 06:20:50;;;;;;;24.67;17.97;;;11.20;99.90;;;;;;5052628;28;20404;-73
2021/10/28 06:23:16;;;;;;;20.87;16.20;;;11.20;99.90;;;;;;5049256;28;20190;-72
2021/10/28 06:25:42;;;;;;;23.30;16.90;;;11.20;99.90;;;;;;5050027;28;20421;-72
2021/10/28 06:28:08;;;;;;;23.33;15.13;;;11.20;99.90;;;;;;5051454;28;20525;-72
2021/10/28 06:30:33;;;;;;;25.03;17.03;;;11.20;99.90;;;;;;5051754;28;20592;-72
2021/10/28 06:33:02;;;;;;;23.10;16.17;;;11.20;99.90;;;;;;5051986;28;20210;-72
2021/10/28 06:35:27;;;;;;;24.83;16.90;;;11.20;99.90;;;;;;5051024;28;20646;-71
2021/10/28 06:37:54;;;;;;;28.53;19.00;;;11.10;99.90;;;;;;5051388;28;20413;-72
2021/10/28 06:40:24;;;;;;;23.93;18.00;;;11.00;99.90;;;;;;5051585;28;20178;-72
2021/10/28 06:42:50;;;;;;;20.70;15.93;;;10.90;99.90;;;;;;5053412;28;20688;-72
2021/10/28 06:45:17;;;;;;;25.50;16.80;;;10.90;99.90;;;;;;5055297;28;20888;-75
2021/10/28 06:47:43;;;;;;;22.03;17.67;;;10.80;99.90;;;;;;5055821;28;20418;-73
2021/10/28 06:50:13;;;;;;;25.87;17.57;;;10.80;99.90;;;;;;5056135;28;20416;-72
2021/10/28 06:55:11;;;;;;;22.80;15.97;;;10.80;99.90;;;;;;5055525;28;20396;-73
2021/10/28 07:02:15;;;;;;;25.00;17.67;;;10.80;99.90;;;;;;5037586;28;20420;-72
2021/10/28 07:03:09;;;;;;;18.33;13.27;;;10.80;99.90;;;;;;5055017;28;20854;-73
2021/10/28 07:05:36;;;;;;;19.40;13.60;;;10.90;99.90;;;;;;5055020;28;20429;-73
2021/10/28 07:08:01;;;;;;;17.37;12.23;;;10.90;99.90;;;;;;5037656;28;20198;-73
2021/10/28 07:10:29;;;;;;;15.30;12.03;;;11.00;99.90;;;;;;5055041;28;20416;-73
2021/10/28 07:13:01;;;;;;;23.73;11.43;;;11.10;99.90;;;;;;5055257;28;20186;-73
2021/10/28 07:28:55;;;;;;;15.43;10.47;;;11.50;99.90;;;;;;5055454;28;20452;-72
2021/10/28 07:31:31;;;;;;;15.20;10.33;;;11.50;99.90;;;;;;5055013;28;20400;-72
2021/10/28 08:14:51;;;;;;;10.47;9.17;;;12.20;99.90;;;;;;5053792;28;20424;-72
2021/10/28 08:19:49;;;;;;;17.33;12.30;;;12.20;99.90;;;;;;5054298;28;20446;-72
2021/10/28 08:30:25;;;;;;;17.47;11.77;;;12.40;99.90;;;;;;5053589;28;20193;-73
2021/10/28 08:32:52;;;;;;;14.23;11.10;;;12.40;99.90;;;;;;5053432;28;20448;-72
2021/10/28 08:35:18;;;;;;;16.83;10.87;;;12.50;99.90;;;;;;5052824;28;20455;-74
2021/10/28 08:37:49;;;;;;;18.00;11.57;;;12.50;99.90;;;;;;5035491;28;20416;-72
2021/10/28 08:40:15;;;;;;;17.27;11.73;;;12.60;99.90;;;;;;5053317;28;20752;-72
2021/10/28 08:42:42;;;;;;;13.20;10.53;;;12.70;99.90;;;;;;5053255;28;20504;-72
2021/10/28 08:45:11;;;;;;;13.13;10.70;;;12.70;99.90;;;;;;5053006;28;20517;-73
2021/10/28 08:47:45;;;;;;;13.40;10.90;;;12.80;99.90;;;;;;5053288;28;20457;-73
2021/10/28 08:50:14;;;;;;;18.13;10.80;;;12.80;99.90;;;;;;5035124;28;20430;-73
2021/10/28 09:31:50;;;;;;;8.83;7.80;;;13.80;99.90;;;;;;5036756;28;20401;-74
2021/10/28 09:34:58;;;;;;;11.60;8.13;;;13.90;99.90;;;;;;5068791;22;20527;-73
2021/10/28 09:48:32;;;;;;;8.90;7.60;;;14.10;99.90;;;;;;5033275;28;20464;-72
2021/10/28 09:51:00;;;;;;;9.70;8.00;;;14.20;99.90;;;;;;5032909;28;20440;-72
2021/10/28 09:53:44;;;;;;;8.73;7.23;;;14.20;99.90;;;;;;5015080;28;20442;-71
2021/10/28 09:59:03;;;;;;;9.60;7.20;;;14.30;99.90;;;;;;5032594;28;20497;-73
2021/10/28 10:01:36;;;;;;;8.03;7.27;;;14.40;99.90;;;;;;5032608;28;20428;-72
2021/10/28 10:04:05;;;;;;;10.73;6.80;;;14.50;99.90;;;;;;5032337;28;20426;-72
2021/10/28 10:06:36;;;;;;;8.30;6.77;;;14.60;99.90;;;;;;5032687;28;20437;-73
2021/10/28 10:09:03;;;;;;;9.10;6.70;;;14.60;99.90;;;;;;5032669;28;20958;-73
2021/10/28 10:11:28;;;;;;;9.07;6.87;;;14.80;99.90;;;;;;5032670;28;20414;-73
2021/10/28 10:13:56;;;;;;;7.23;6.53;;;14.80;99.90;;;;;;5032536;28;20487;-73
2021/10/28 10:16:21;;;;;;;7.43;6.53;;;14.90;99.90;;;;;;5031884;28;20174;-72
2021/10/28 10:18:48;;;;;;;8.93;6.37;;;15.00;99.90;;;;;;5032064;28;20436;-72
2021/10/28 11:32:41;;;;;;;10.90;6.07;;;16.20;99.90;;;;;;5035143;28;20413;-72
2021/10/28 12:28:17;;;;;;;5.10;4.60;;;16.20;99.90;;;;;;5033257;28;20959;-72
2021/10/28 12:44:51;;;;;;;7.90;5.20;;;16.20;99.90;;;;;;5034545;28;20464;-72
2021/10/28 12:52:51;;;;;;;5.33;4.80;;;16.20;99.50;;;;;;5033415;28;20946;-72
2021/10/28 13:37:48;;;;;;;6.47;4.90;;;16.60;99.30;;;;;;5032655;28;20460;-72
2021/10/28 13:50:10;;;;;;;8.80;7.20;;;17.10;99.30;;;;;;5032459;28;20983;-73
2021/10/28 13:53:21;;;;;;;6.80;6.10;;;17.20;99.30;;;;;;5032454;28;20417;-73
2021/10/28 14:28:16;;;;;;;6.43;5.80;;;17.70;99.30;;;;;;5032176;28;20400;-73
2021/10/28 14:30:52;;;;;;;7.80;6.40;;;17.60;99.60;;;;;;5031236;28;20450;-72
2021/10/28 14:38:44;;;;;;;8.77;7.87;;;17.60;99.90;;;;;;5032261;28;20536;-73
2021/10/28 15:01:02;;;;;;;13.73;8.57;;;16.50;99.90;;;;;;5032399;28;20397;-73
2021/10/28 15:30:20;;;;;;;14.70;10.33;;;15.60;99.90;;;;;;5035389;28;20805;-72
2021/10/28 15:41:03;;;;;;;14.23;10.37;;;15.30;99.90;;;;;;5083772;28;20184;-70
2021/10/28 15:54:05;;;;;;;14.37;12.03;;;14.80;99.90;;;;;;5091424;28;20431;-71
2021/10/28 15:56:41;;;;;;;13.93;12.40;;;14.80;99.90;;;;;;5072682;28;20546;-71
2021/10/28 16:23:49;;;;;;;14.90;13.20;;;14.20;99.90;;;;;;5091719;28;20521;-72
2021/10/28 16:26:15;;;;;;;14.93;13.13;;;14.10;99.90;;;;;;5099169;28;20519;-71
2021/10/28 16:28:41;;;;;;;16.93;14.27;;;14.10;99.90;;;;;;5066299;28;20451;-71
2021/10/28 16:31:06;;;;;;;16.87;13.00;;;14.10;99.90;;;;;;5075750;28;20461;-72
2021/10/28 16:33:36;;;;;;;18.40;14.13;;;14.00;99.90;;;;;;5088237;28;20612;-72
2021/10/28 16:36:01;;;;;;;17.63;14.60;;;13.90;99.90;;;;;;5082800;28;20242;-72
2021/10/28 16:38:27;;;;;;;17.03;13.67;;;13.90;99.90;;;;;;5100744;28;20952;-70
2021/10/28 16:40:53;;;;;;;17.60;13.53;;;13.80;99.90;;;;;;5092758;28;20869;-73
2021/10/28 16:43:18;;;;;;;17.87;15.03;;;13.80;99.90;;;;;;5070354;28;20801;-73
2021/10/28 16:45:48;;;;;;;25.30;14.70;;;13.70;99.90;;;;;;5092403;28;20469;-74
2021/10/28 16:48:15;;;;;;;19.00;13.80;;;13.70;99.90;;;;;;5075748;28;20201;-72
2021/10/28 16:50:42;;;;;;;18.33;14.90;;;13.60;99.90;;;;;;5080920;28;20958;-72
2021/10/28 16:53:08;;;;;;;20.63;15.87;;;13.60;99.90;;;;;;5091592;28;20438;-73
2021/10/28 16:55:34;;;;;;;20.27;15.50;;;13.50;99.90;;;;;;5089165;28;20443;-73
2021/10/28 16:58:00;;;;;;;18.07;15.10;;;13.50;99.90;;;;;;5100683;28;20427;-72
2021/10/28 17:00:26;;;;;;;18.50;13.83;;;13.50;99.90;;;;;;5088429;28;21026;-73
2021/10/28 17:02:52;;;;;;;16.73;14.47;;;13.40;99.90;;;;;;5069331;28;20188;-73
2021/10/28 17:05:18;;;;;;;17.53;14.70;;;13.30;99.90;;;;;;5086676;28;20996;-72
2021/10/28 17:07:43;;;;;;;19.93;14.73;;;13.30;99.90;;;;;;5081253;28;20459;-72
2021/10/28 17:10:10;;;;;;;17.83;13.83;;;13.20;99.90;;;;;;5050697;28;20284;-72
2021/10/28 17:12:36;;;;;;;18.30;14.67;;;13.20;99.90;;;;;;5079549;28;20255;-72
2021/10/28 17:15:06;;;;;;;21.10;14.87;;;13.20;99.90;;;;;;5088472;28;20443;-71
2021/10/28 17:17:32;;;;;;;20.77;16.47;;;13.10;99.90;;;;;;5089840;28;20407;-71
2021/10/28 17:20:04;;;;;;;19.07;15.03;;;13.10;99.90;;;;;;5095831;28;20420;-72
2021/10/28 17:22:30;;;;;;;23.03;15.57;;;13.00;99.90;;;;;;5066574;28;20180;-71
2021/10/28 17:24:55;;;;;;;21.73;15.50;;;13.00;99.90;;;;;;5069362;28;20427;-70
2021/10/28 17:27:21;;;;;;;21.03;16.67;;;13.00;99.90;;;;;;5069151;28;20183;-71
2021/10/28 17:29:47;;;;;;;19.47;15.43;;;12.90;99.90;;;;;;5051216;28;20201;-71
2021/10/28 17:32:12;;;;;;;20.60;16.10;;;12.90;99.90;;;;;;5069820;28;20250;-71
2021/10/28 17:34:38;;;;;;;20.50;16.20;;;12.80;99.90;;;;;;5069225;28;20291;-71
2021/10/28 17:37:04;;;;;;;23.33;18.30;;;12.80;99.90;;;;;;5069016;28;20418;-72
2021/10/28 17:39:30;;;;;;;24.07;16.87;;;12.70;99.90;;;;;;5101015;28;20177;-71
2021/10/28 17:41:57;;;;;;;22.53;17.10;;;12.70;99.90;;;;;;5095288;28;20421;-71
2021/10/28 17:44:34;;;;;;;22.40;16.70;;;12.60;99.90;;;;;;5099634;28;20222;-72
2021/10/28 17:47:00;;;;;;;21.93;16.73;;;12.40;99.90;;;;;;5101686;28;20425;-72
2021/10/28 17:49:25;;;;;;;22.13;17.27;;;12.30;99.90;;;;;;5088829;28;20466;-72
2021/10/28 17:51:51;;;;;;;21.87;16.53;;;12.30;99.90;;;;;;5070293;28;20230;-72
2021/10/28 17:54:17;;;;;;;23.37;18.07;;;12.30;99.90;;;;;;5064778;28;20688;-72
2021/10/28 17:56:42;;;;;;;23.27;18.40;;;12.20;99.90;;;;;;5100793;28;20177;-71
2021/10/28 17:59:08;;;;;;;25.87;18.33;;;12.10;99.90;;;;;;5101903;28;20211;-72
2021/10/28 18:01:35;;;;;;;24.60;18.33;;;12.00;99.90;;;;;;5070204;28;20177;-72
2021/10/28 18:04:02;;;;;;;25.20;18.10;;;11.90;99.90;;;;;;5070160;28;20426;-72
2021/10/28 18:06:29;;;;;;;25.47;17.97;;;11.90;99.90;;;;;;5088996;28;20446;-73
2021/10/28 18:08:55;;;;;;;22.60;17.20;;;11.90;99.90;;;;;;5070986;28;20523;-72
2021/10/28 18:11:21;;;;;;;23.60;16.37;;;11.80;99.90;;;;;;5088972;28;20475;-72
2021/10/28 18:13:49;;;;;;;25.57;19.60;;;11.90;99.90;;;;;;5089656;28;20411;-72
2021/10/28 18:16:15;;;;;;;27.40;19.53;;;11.80;99.90;;;;;;5088424;28;20419;-72
2021/10/28 18:18:40;;;;;;;23.10;17.93;;;11.70;99.90;;;;;;5088822;28;20418;-73
2021/10/28 18:21:07;;;;;;;27.47;20.70;;;11.70;99.90;;;;;;5101788;28;21148;-71
2021/10/28 18:23:38;;;;;;;27.03;19.57;;;11.60;99.90;;;;;;5068148;28;20181;-71
2021/10/28 18:26:03;;;;;;;26.97;19.23;;;11.60;99.90;;;;;;5067896;28;20963;-71
2021/10/28 18:28:29;;;;;;;27.17;18.50;;;11.60;99.90;;;;;;5080761;28;20474;-73
2021/10/28 18:30:55;;;;;;;24.67;18.67;;;11.60;99.90;;;;;;5088288;28;20261;-71
2021/10/28 18:33:20;;;;;;;29.80;21.30;;;11.50;99.90;;;;;;5088100;28;20713;-71
2021/10/28 18:35:47;;;;;;;28.30;20.53;;;11.40;99.90;;;;;;5087571;28;20450;-71
2021/10/28 18:38:13;;;;;;;26.83;18.90;;;11.40;99.90;;;;;;5083903;28;20267;-73
2021/10/28 18:40:39;;;;;;;28.03;21.40;;;11.30;99.90;;;;;;5087246;28;20496;-72
2021/10/28 18:43:04;;;;;;;27.07;20.03;;;11.30;99.90;;;;;;5088409;28;20763;-72
2021/10/28 18:45:31;;;;;;;28.83;20.40;;;11.30;99.90;;;;;;5088217;28;20652;-72
2021/10/28 18:47:57;;;;;;;26.92;19.95;;;11.40;99.90;;;;;;5088165;28;20416;-72
2021/10/28 18:50:23;;;;;;;27.00;20.07;;;11.40;99.90;;;;;;5088457;28;20196;-72
2021/10/28 18:52:49;;;;;;;25.50;18.87;;;11.40;99.90;;;;;;5087992;28;20414;-73
2021/10/28 18:55:15;;;;;;;29.07;21.60;;;11.30;99.90;;;;;;5069814;28;20283;-72
2021/10/28 18:57:41;;;;;;;29.37;20.43;;;11.30;99.90;;;;;;5088047;28;20259;-72
2021/10/28 19:00:10;;;;;;;27.87;19.60;;;11.30;99.90;;;;;;5087606;28;21216;-73
2021/10/28 19:02:37;;;;;;;29.67;19.53;;;11.20;99.90;;;;;;5082441;28;20188;-72
2021/10/28 19:05:07;;;;;;;29.87;20.40;;;11.10;99.90;;;;;;5097097;28;20456;-73
2021/10/28 19:07:33;;;;;;;27.23;19.17;;;11.00;99.90;;;;;;5098564;28;20429;-72
2021/10/28 19:09:59;;;;;;;28.90;19.60;;;11.00;99.90;;;;;;5086342;28;20449;-72
2021/10/28 19:12:25;;;;;;;32.10;19.63;;;11.00;99.90;;;;;;5097223;28;20649;-71
2021/10/28 19:14:52;;;;;;;28.57;19.23;;;11.00;99.90;;;;;;5087897;28;20281;-72
2021/10/28 19:17:17;;;;;;;28.43;20.83;;;10.90;99.90;;;;;;5071605;28;20423;-73
2021/10/28 19:19:44;;;;;;;25.40;19.37;;;10.90;99.90;;;;;;5092068;28;20818;-72
2021/10/28 19:22:09;;;;;;;25.47;19.60;;;10.90;99.90;;;;;;5088000;28;20420;-72
2021/10/28 19:24:36;;;;;;;27.57;20.50;;;10.90;99.90;;;;;;5067851;28;20439;-72
2021/10/28 19:27:02;;;;;;;26.07;19.40;;;10.90;99.90;;;;;;5068023;28;20205;-72
2021/10/28 19:29:28;;;;;;;26.83;19.47;;;10.80;99.90;;;;;;5067800;28;20467;-72
2021/10/28 19:32:08;;;;;;;27.80;19.03;;;10.80;99.90;;;;;;5067557;28;20477;-73
2021/10/28 19:34:38;;;;;;;27.53;19.67;;;10.70;99.90;;;;;;5065777;28;20253;-72
2021/10/28 19:39:50;;;;;;;24.93;18.13;;;10.80;99.90;;;;;;5088018;28;20422;-71
2021/10/28 19:42:35;;;;;;;25.73;18.40;;;10.80;99.90;;;;;;5083230;28;20417;-72
2021/10/28 19:45:23;;;;;;;27.80;18.90;;;10.80;99.90;;;;;;5089035;28;20442;-71
2021/10/28 19:47:48;;;;;;;30.80;19.00;;;10.80;99.90;;;;;;5062912;28;20521;-72
2021/10/28 19:50:14;;;;;;;27.50;17.97;;;10.70;99.90;;;;;;5089567;28;20497;-72
2021/10/28 19:52:42;;;;;;;28.23;19.10;;;10.70;99.90;;;;;;5084745;28;20173;-72
2021/10/28 19:55:08;;;;;;;23.52;18.25;;;10.60;99.90;;;;;;5073303;28;20834;-72
2021/10/28 19:57:38;;;;;;;24.43;17.00;;;10.60;99.90;;;;;;5074685;28;20169;-71
2021/10/28 20:00:21;;;;;;;25.80;17.87;;;10.70;99.90;;;;;;5071974;28;20945;-73
2021/10/28 20:08:00;;;;;;;24.13;17.60;;;10.80;99.90;;;;;;5091195;28;20185;-72
2021/10/28 20:13:23;;;;;;;24.03;17.10;;;10.70;99.90;;;;;;5072627;28;20437;-72
2021/10/28 20:21:18;;;;;;;28.33;18.23;;;10.60;99.90;;;;;;5090424;28;20518;-72
2021/10/28 20:23:44;;;;;;;24.67;18.37;;;10.60;99.90;;;;;;5090235;28;20411;-73
2021/10/28 20:26:09;;;;;;;25.37;18.47;;;10.60;99.90;;;;;;5089359;28;20810;-73
2021/10/28 20:28:40;;;;;;;23.63;16.20;;;10.50;99.90;;;;;;5090368;28;20623;-72
2021/10/28 20:31:08;;;;;;;22.30;16.27;;;10.60;99.90;;;;;;5089785;28;20173;-71
2021/10/28 20:33:38;;;;;;;24.03;16.27;;;10.60;99.90;;;;;;5090440;28;20407;-71
2021/10/28 20:38:50;;;;;;;22.00;15.03;;;10.50;99.90;;;;;;5090790;28;20445;-72
2021/10/28 20:41:16;;;;;;;22.57;15.60;;;10.60;99.90;;;;;;5090559;28;20835;-72
2021/10/28 20:43:41;;;;;;;21.67;15.60;;;10.60;99.90;;;;;;5090601;28;20407;-72
2021/10/28 20:46:07;;;;;;;21.83;16.07;;;10.70;99.90;;;;;;5090311;28;20302;-72
2021/10/28 20:48:38;;;;;;;25.20;17.50;;;10.70;99.90;;;;;;5090578;28;20619;-72
2021/10/28 20:51:04;;;;;;;21.67;15.73;;;10.70;99.90;;;;;;5106895;28;20425;-72
2021/10/28 20:53:31;;;;;;;25.20;16.87;;;10.80;99.90;;;;;;5051685;28;20462;-72
2021/10/28 20:55:56;;;;;;;19.90;14.73;;;10.80;99.90;;;;;;5069635;28;20272;-72
2021/10/28 20:58:22;;;;;;;22.77;15.33;;;10.80;99.90;;;;;;5081332;28;20517;-71
2021/10/28 21:00:47;;;;;;;23.77;17.17;;;10.90;99.90;;;;;;5092015;28;20688;-71
2021/10/28 21:03:13;;;;;;;22.80;16.10;;;10.90;99.90;;;;;;5071889;28;20234;-72
2021/10/28 21:05:39;;;;;;;21.13;16.37;;;10.90;99.90;;;;;;5071996;28;20195;-72
2021/10/28 21:08:04;;;;;;;20.83;15.10;;;10.90;99.90;;;;;;5091710;28;20907;-71
2021/10/28 21:10:30;;;;;;;24.27;16.13;;;10.90;99.90;;;;;;5068363;28;20193;-72
2021/10/28 21:12:57;;;;;;;20.27;13.63;;;10.90;99.90;;;;;;5060419;28;20230;-71
2021/10/28 21:15:25;;;;;;;22.97;15.67;;;10.90;99.90;;;;;;5086605;28;20205;-71
2021/10/28 21:17:50;;;;;;;21.03;15.20;;;10.90;99.90;;;;;;5087754;28;20826;-72
2021/10/28 21:20:16;;;;;;;20.57;14.63;;;10.90;99.90;;;;;;5090288;28;20431;-74
2021/10/28 21:22:42;;;;;;;20.77;15.50;;;10.90;99.90;;;;;;5081969;28;20176;-72